TAF and METAR

Decoding for American and Canadian METARs and TAFs is not fully implemented.

Could not understand the following METAR

PADE 170253Z AUTO 33006KT 10SM CLR 22/12 A2959 RMK AO2 SLP020 T02170117 55005 TSNO
No TAF available for Deering Airport